• Join FlightAware (Why Join?)
  • Login
  • US Flag 
02:06AM EDT


 

Airport Tracker/Info


-or-


 

Live Flight TrackerFlight Track Log ✈ N92PK ✈ 16-Nov-2013 ✈ KSUA - KLZU

Flight Track Log - Related Links

Times and Time Zones

All times are in EST time to prevent confusion due to time zone crossing. See the N92PK flight status page for this flight to view local times or setup timezone preferences in your user account.

Time Position Orientation Groundspeed Altitude Reporting Facility
EST Latitude Longitude Course Direction KTS MPH feet Rate Location/Type
08:19AM 27.1440 -80.1510 176° South 122 140 2,300  Level FlightAware
08:20AM 27.1280 -80.1650 218° Southwest 142 163 3,000 960 Climbing FlightAware
08:21AM 27.1350 -80.1940 285° West 150 173 3,600 600 Climbing FlightAware
08:21AM 27.1410 -80.2210 284° West 171 197 3,800 300 Climbing FlightAware
08:22AM 27.1510 -80.2580 287° West 175 201 4,000 540 Climbing FlightAware
08:22AM 27.1570 -80.2850 284° West 165 190 4,500 780 Climbing FlightAware
08:23AM 27.1630 -80.3090 286° West 166 191 4,800 180 Climbing FlightAware
08:24AM 27.1730 -80.3540 284° West 176 203 4,800  Level FlightAware
08:24AM 27.1770 -80.3720 284° West 176 203 4,800  Level FlightAware
08:25AM 27.1850 -80.4100 283° West 184 212 4,800 300 Level FlightAware
08:25AM 27.1940 -80.4420 288° West 173 199 5,200 840 Climbing FlightAware
08:26AM 27.2100 -80.4510 333° Northwest 5,600 900 Climbing FlightAware
08:27AM 27.2770 -80.4650 349° North 158 182 7,000 900 Climbing FlightAware
08:28AM 27.2910 -80.4680 349° North 158 182 7,300 360 Climbing FlightAware
08:28AM 27.3070 -80.4710 351° North 158 182 7,300 900 Level FlightAware
08:29AM 27.3570 -80.4810 350° North 149 171 8,700 960 Climbing FlightAware
08:30AM 27.3760 -80.4850 349° North 162 186 8,800 120 Climbing FlightAware
08:30AM 27.3890 -80.4870 352° North 166 191 8,800  Level FlightAware
08:31AM 27.4290 -80.4960 349° North 181 208 8,800  Level FlightAware
08:32AM 27.4560 -80.5020 349° North 181 208 8,800  Level FlightAware
08:32AM 27.4730 -80.5050 351° North 181 208 8,800  Level FlightAware
08:33AM 27.4980 -80.5110 348° North 181 208 8,800  Level FlightAware
08:33AM 27.5070 -80.5130 349° North 181 208 8,800  Level FlightAware
08:34AM 27.5780 -80.5260 351° North 180 207 8,800  Level FlightAware
08:34AM 27.6090 -80.5330 349° North 180 207 8,800  Level FlightAware
08:35AM 27.6260 -80.5370 348° North 180 207 8,800  Level FlightAware
08:35AM 27.6550 -80.5420 351° North 180 207 8,800 60 Level FlightAware
08:37AM 27.7186 -80.5561 351° North 180 207 9,000 60 Climbing Miami Center
08:38AM 27.7747 -80.5672 350° North 180 207 9,000  Level Miami Center
08:39AM 27.8247 -80.5783 349° North 180 207 9,000  Level Miami Center
08:40AM 27.9000 -80.6000 346° North 172 198 9,000  Level Orlando TRACON
08:41AM 27.9500 -80.6000 360° North 172 198 9,000  Level Orlando TRACON
08:43AM 28.0000 -80.6167 344° North 171 197 9,000  Level Orlando TRACON
08:44AM 28.0500 -80.6167 360° North 176 203 9,000  Level Orlando TRACON
08:44AM 28.1000 -80.6333 344° North 178 205 9,000  Level Orlando TRACON
08:45AM 28.1500 -80.6500 344° North 185 213 9,000  Level Orlando TRACON
08:46AM 28.2000 -80.6667 344° North 174 200 9,000  Level Orlando TRACON
08:48AM 28.2333 -80.6833 336° Northwest 175 201 9,000  Level Orlando TRACON
08:49AM 28.2833 -80.7000 344° North 174 200 9,000  Level Orlando TRACON
08:50AM 28.3333 -80.7167 344° North 177 204 9,000  Level Orlando TRACON
08:51AM 28.3833 -80.7500 330° Northwest 178 205 9,000  Level Orlando TRACON
08:52AM 28.4333 -80.7500 360° North 178 205 9,000  Level Orlando TRACON
08:53AM 28.4667 -80.7333 24° Northeast 175 201 9,000  Level Orlando TRACON
08:54AM 28.5167 -80.7167 16° North 179 206 9,000  Level Orlando TRACON
08:55AM 28.5667 -80.7000 16° North 175 201 9,000  Level Orlando TRACON
08:56AM 28.6167 -80.7000 360° North 177 204 9,000  Level Orlando TRACON
08:57AM 28.6500 -80.7167 336° Northwest 172 198 9,000  Level Orlando TRACON
08:58AM 28.6833 -80.7500 319° Northwest 178 205 9,000  Level Orlando TRACON
09:00AM 28.7725 -80.8603 313° West 176 203 9,000  Level Jacksonville Center
09:01AM 28.8000 -80.8931 314° West 179 206 9,000  Level Jacksonville Center
09:02AM 28.8383 -80.9300 320° Northwest 178 205 9,000 -60 Level Jacksonville Center
09:07AM 29.0960 -81.0290 320° Northwest 181 208 8,800 -60 Descending FlightAware
09:08AM 29.1270 -81.0420 340° North 182 209 8,800  Level FlightAware
09:09AM 29.1580 -81.0540 341° North 183 211 8,800  Level FlightAware
09:09AM 29.1860 -81.0650 341° North 186 214 8,800  Level FlightAware
09:10AM 29.2150 -81.0770 340° North 184 212 8,800  Level FlightAware
09:10AM 29.2380 -81.0860 341° North 186 214 8,800  Level FlightAware
09:11AM 29.2560 -81.0930 341° North 186 214 8,800  Level FlightAware
09:11AM 29.2870 -81.1060 340° North 185 213 8,800  Level FlightAware
09:12AM 29.3200 -81.1230 336° Northwest 186 214 8,800  Level FlightAware
09:12AM 29.3410 -81.1350 334° Northwest 186 214 8,800  Level FlightAware
09:13AM 29.3690 -81.1500 335° Northwest 186 214 8,800  Level FlightAware
09:14AM 29.3980 -81.1680 332° Northwest 186 214 8,800  Level FlightAware
09:14AM 29.4330 -81.1880 334° Northwest 188 216 8,800  Level FlightAware
09:15AM 29.4620 -81.2040 334° Northwest 187 215 8,800  Level FlightAware
09:16AM 29.4910 -81.2210 333° Northwest 187 215 8,800  Level FlightAware
09:16AM 29.5210 -81.2390 332° Northwest 188 216 8,800  Level FlightAware
09:17AM 29.5500 -81.2550 334° Northwest 188 216 8,800  Level FlightAware
09:17AM 29.5800 -81.2730 332° Northwest 189 217 8,800  Level FlightAware
09:18AM 29.6060 -81.2880 333° Northwest 189 217 8,800  Level FlightAware
09:19AM 29.6330 -81.3040 333° Northwest 189 217 8,800  Level FlightAware
09:19AM 29.6600 -81.3190 334° Northwest 189 217 8,800  Level FlightAware
09:20AM 29.6970 -81.3410 333° Northwest 189 217 8,800  Level FlightAware
09:21AM 29.7230 -81.3560 333° Northwest 190 219 8,800  Level FlightAware
09:21AM 29.7670 -81.3820 333° Northwest 188 216 8,800  Level FlightAware
09:22AM 29.7910 -81.3950 335° Northwest 188 216 8,800  Level FlightAware
09:23AM 29.8270 -81.4160 333° Northwest 187 215 8,800  Level FlightAware
09:23AM 29.8570 -81.4340 333° Northwest 187 215 8,800  Level FlightAware
09:24AM 29.8850 -81.4500 334° Northwest 187 215 8,800  Level FlightAware
09:24AM 29.9090 -81.4640 333° Northwest 186 214 8,800  Level FlightAware
09:25AM 29.9310 -81.4770 333° Northwest 185 213 8,800  Level FlightAware
09:26AM 29.9580 -81.4930 333° Northwest 185 213 8,800  Level FlightAware
09:26AM 29.9830 -81.5080 333° Northwest 182 209 8,800  Level FlightAware
09:27AM 30.0110 -81.5240 334° Northwest 182 209 8,800  Level FlightAware
09:27AM 30.0390 -81.5410 332° Northwest 184 212 8,800  Level FlightAware
09:28AM 30.0690 -81.5580 334° Northwest 185 213 8,800  Level FlightAware
09:29AM 30.0940 -81.5730 333° Northwest 184 212 8,800  Level FlightAware
09:29AM 30.1250 -81.5910 333° Northwest 184 212 8,800  Level FlightAware
09:30AM 30.1520 -81.6060 334° Northwest 184 212 8,800  Level FlightAware
09:31AM 30.1860 -81.6270 332° Northwest 185 213 8,800  Level FlightAware
09:31AM 30.2100 -81.6410 333° Northwest 185 213 8,800  Level FlightAware
09:32AM 30.2360 -81.6560 334° Northwest 185 213 8,800  Level FlightAware
09:32AM 30.2660 -81.6740 333° Northwest 185 213 8,800  Level FlightAware
09:33AM 30.2970 -81.6920 333° Northwest 185 213 8,800  Level FlightAware
09:34AM 30.3250 -81.7080 334° Northwest 185 213 8,800  Level FlightAware
09:34AM 30.3450 -81.7200 333° Northwest 185 213 8,800  Level FlightAware
09:35AM 30.3780 -81.7400 332° Northwest 186 214 8,800  Level FlightAware
09:35AM 30.4030 -81.7550 333° Northwest 187 215 8,800  Level FlightAware
09:36AM 30.4370 -81.7750 333° Northwest 187 215 8,800  Level FlightAware
09:37AM 30.4660 -81.7920 333° Northwest 188 216 8,800  Level FlightAware
09:37AM 30.4910 -81.8070 333° Northwest 188 216 8,800  Level FlightAware
09:38AM 30.5210 -81.8240 334° Northwest 188 216 8,800  Level FlightAware
09:38AM 30.5490 -81.8410 332° Northwest 187 215 8,800  Level FlightAware
09:39AM 30.5750 -81.8570 332° Northwest 187 215 8,800  Level FlightAware
09:39AM 30.5970 -81.8700 333° Northwest 186 214 8,800  Level FlightAware
09:40AM 30.6140 -81.8800 333° Northwest 186 214 8,800  Level FlightAware
09:40AM 30.6370 -81.8940 332° Northwest 186 214 8,800  Level FlightAware
09:41AM 30.6690 -81.9140 332° Northwest 186 214 8,800  Level FlightAware
09:42AM 30.7090 -81.9360 335° Northwest 185 213 8,800  Level FlightAware
09:43AM 30.7420 -81.9560 332° Northwest 185 213 8,800  Level FlightAware
09:43AM 30.7650 -81.9710 331° Northwest 185 213 8,800  Level FlightAware
09:44AM 30.7800 -81.9800 333° Northwest 185 213 8,800 60 Level FlightAware
09:45AM 30.8314 -82.0119 333° Northwest 186 214 8,900  Climbing Jacksonville Center
09:46AM 30.8775 -82.0381 334° Northwest 180 207 8,900  Level Jacksonville Center
09:47AM 30.9217 -82.0667 331° Northwest 180 207 8,900  Level Jacksonville Center
09:48AM 30.9675 -82.0931 334° Northwest 180 207 8,900  Level Jacksonville Center
09:49AM 31.0117 -82.1217 331° Northwest 180 207 8,900  Level Jacksonville Center
09:50AM 31.0600 -82.1506 333° Northwest 180 207 8,900 -60 Level Jacksonville Center
09:51AM 31.1039 -82.1767 333° Northwest 180 207 8,800 -300 Descending Jacksonville Center
09:52AM 31.1519 -82.2056 333° Northwest 180 207 8,300 -480 Descending Jacksonville Center
09:53AM 31.2022 -82.2344 334° Northwest 180 207 7,900 -240 Descending Jacksonville Center
09:54AM 31.2483 -82.2631 332° Northwest 180 207 7,900  Level Jacksonville Center
09:55AM 31.2925 -82.2897 333° Northwest 180 207 7,900  Level Jacksonville Center
09:56AM 31.3364 -82.3161 333° Northwest 180 207 7,900  Level Jacksonville Center
09:57AM 31.3825 -82.3403 336° Northwest 174 200 7,900  Level Jacksonville Center
09:58AM 31.4242 -82.3692 329° Northwest 174 200 7,900  Level Jacksonville Center
09:59AM 31.4703 -82.3933 336° Northwest 179 206 7,900  Level Jacksonville Center
10:00AM 31.5122 -82.4222 330° Northwest 179 206 8,000  Climbing Jacksonville Center
10:01AM 31.5561 -82.4489 333° Northwest 179 206 8,000  Level Jacksonville Center
10:02AM 31.6000 -82.4756 333° Northwest 174 200 8,000  Level Jacksonville Center
10:03AM 31.6461 -82.4997 336° Northwest 174 200 8,000  Level Jacksonville Center
10:04AM 31.6878 -82.5264 331° Northwest 174 200 8,000  Level Jacksonville Center
10:05AM 31.7319 -82.5556 331° Northwest 179 206 8,000  Level Jacksonville Center
10:06AM 31.7736 -82.5797 334° Northwest 174 200 8,000  Level Jacksonville Center
10:07AM 31.8197 -82.6064 334° Northwest 174 200 8,000  Level Jacksonville Center
10:08AM 31.8636 -82.6333 332° Northwest 179 206 8,000  Level Jacksonville Center
10:09AM 31.9053 -82.6600 331° Northwest 179 206 8,000  Level Jacksonville Center
10:10AM 31.9514 -82.6894 332° Northwest 179 206 8,000  Level Jacksonville Center
10:11AM 31.9953 -82.7139 335° Northwest 179 206 8,000  Level Jacksonville Center
10:12AM 32.0392 -82.7431 331° Northwest 179 206 8,000  Level Jacksonville Center
10:13AM 32.0831 -82.7725 330° Northwest 179 206 8,000  Level Jacksonville Center
10:14AM 32.1289 -82.7969 336° Northwest 179 206 8,000  Level Jacksonville Center
10:16AM 32.2333 -82.8667 331° Northwest 181 208 8,000  Level Atlanta TRACON
10:17AM 32.2833 -82.9000 331° Northwest 181 208 8,000  Level Atlanta TRACON
10:18AM 32.3333 -82.9167 344° North 181 208 8,000  Level Atlanta TRACON
10:19AM 32.3833 -82.9500 331° Northwest 182 209 8,000  Level Atlanta TRACON
10:20AM 32.4167 -82.9833 320° Northwest 184 212 8,000  Level Atlanta TRACON
10:21AM 32.4667 -83.0167 331° Northwest 183 211 8,000  Level Atlanta TRACON
10:22AM 32.5167 -83.0333 344° North 178 205 8,000  Level Atlanta TRACON
10:23AM 32.5500 -83.0667 320° Northwest 178 205 8,000 -60 Level Atlanta TRACON
10:28AM 32.7680 -83.2200 320° Northwest 169 194 7,700 -60 Descending FlightAware
10:29AM 32.7830 -83.2300 331° Northwest 169 194 7,700 -120 Level FlightAware
10:33AM 32.9490 -83.3480 329° Northwest 173 199 7,300 -120 Descending FlightAware
10:33AM 32.9690 -83.3620 330° Northwest 173 199 7,200 -240 Descending FlightAware
10:34AM 33.0000 -83.3833 330° Northwest 173 199 7,000 -360 Descending Atlanta TRACON
10:35AM 33.0333 -83.4167 320° Northwest 171 197 6,700 -420 Descending Atlanta TRACON
10:36AM 33.0833 -83.4333 344° North 175 201 6,300 -360 Descending Atlanta TRACON
10:37AM 33.1167 -83.4667 320° Northwest 171 197 6,000 -180 Descending Atlanta TRACON
10:38AM 33.1500 -83.5000 320° Northwest 167 192 6,000  Level Atlanta TRACON
10:39AM 33.2000 -83.5167 344° North 167 192 6,000  Level Atlanta TRACON
10:40AM 33.2333 -83.5500 320° Northwest 164 189 6,000  Level Atlanta TRACON
10:41AM 33.2667 -83.5833 320° Northwest 163 188 6,000 -300 Level Atlanta TRACON
10:47AM 33.5330 -83.6810 320° Northwest 182 209 4,200 -360 Descending FlightAware
10:47AM 33.5550 -83.6830 356° North 179 206 3,900 -540 Descending FlightAware
10:48AM 33.5840 -83.6850 357° North 168 193 3,700 -180 Descending FlightAware
10:48AM 33.6110 -83.6880 355° North 158 182 3,700  Level FlightAware
10:49AM 33.6380 -83.6910 355° North 149 171 3,700  Level FlightAware
10:50AM 33.6630 -83.6940 354° North 144 166 3,700  Level FlightAware
10:52AM 33.7690 -83.7020 356° North 136 157 3,700  Level FlightAware
10:53AM 33.7900 -83.7040 355° North 134 154 3,700  Level FlightAware
10:53AM 33.8100 -83.7060 355° North 135 155 3,700  Level FlightAware
10:54AM 33.8370 -83.7080 356° North 138 159 3,700  Level FlightAware
10:55AM 33.8550 -83.7090 357° North 140 161 3,700  Level FlightAware
10:55AM 33.8750 -83.7110 355° North 140 161 3,700  Level FlightAware
10:56AM 33.9270 -83.7170 355° North 140 161 3,700  Level FlightAware
10:57AM 33.9360 -83.7210 340° North 141 162 3,700  Level FlightAware
10:57AM 33.9480 -83.7280 334° Northwest 141 162 3,700 -180 Level FlightAware
10:58AM 33.9833 -83.7500 334° Northwest 152 175 3,500 -480 Descending Atlanta TRACON
10:59AM 34.0167 -83.7667 337° Northwest 155 178 3,000 -300 Descending Atlanta TRACON
11:00AM 34.0500 -83.7833 337° Northwest 145 167 3,000  Level Atlanta TRACON
11:01AM 34.0333 -83.8167 239° Southwest 117 135 3,000 -60 Level Atlanta TRACON
11:02AM 34.0167 -83.8500 239° Southwest 110 127 2,900 -420 Descending Atlanta TRACON
11:03AM 34.0000 -83.8833 239° Southwest 119 137 2,200 -720 Descending Atlanta TRACON
11:04AM 33.9833 -83.9333 248° West 116 133 1,500 -660 Descending Atlanta TRACON
11:06AM 33.9667 -83.9500 239° Southwest  Level FlightAware Approximate
11:13AM 33.9781 -83.9624 239° Southwest  Level Estimated